Time,TemperatureF,DewpointF,PressureIn,WindDirection,WindDirectionDegrees,WindSpeedMPH,WindSpeedGustMPH,Humidity,HourlyPrecipIn,Conditions,Clouds,dailyrainin,SoftwareType,DateUTC
2013-03-01 00:00:00,26.1,25.6,29.70,NE,53,4.1,39.7,98,0.00,,,0.00,VWS V14.01,2013-03-01 05:00:00,
2013-03-01 00:01:00,26.1,25.6,29.70,ENE,60,6.7,39.7,98,0.00,,,0.00,VWS V14.01,2013-03-01 05:01:00,
2013-03-01 00:02:00,19.4,18.5,29.83,ENE,77,0.0,26.3,96,0.00,,,0.00,VWS V14.01,2013-03-01 05:02:00,
2013-03-01 00:04:00,26.0,25.5,29.70,ENE,60,12.7,39.7,98,0.00,,,0.00,VWS V14.01,2013-03-01 05:04:00,
2013-03-01 00:09:00,26.0,25.5,29.70,North,359,0.0,39.7,98,0.00,,,0.00,VWS V14.01,2013-03-01 05:09:00,
2013-03-01 00:12:00,26.0,25.5,29.70,North,349,0.0,39.7,98,0.00,,,0.00,VWS V14.01,2013-03-01 05:12:00,
2013-03-01 00:17:00,26.0,25.5,29.70,ESE,122,8.9,39.7,98,0.00,,,0.00,VWS V14.01,2013-03-01 05:17:00,
2013-03-01 00:22:00,25.8,25.3,29.70,NNE,28,5.6,39.7,98,0.00,,,0.00,VWS V14.01,2013-03-01 05:22:00,
2013-03-01 00:27:00,25.9,25.4,29.70,ENE,68,0.0,39.7,98,0.00,,,0.00,VWS V14.01,2013-03-01 05:27:00,
2013-03-01 00:32:00,25.8,25.3,29.71,North,359,0.7,39.7,98,0.00,,,0.00,VWS V14.01,2013-03-01 05:32:00,
2013-03-01 00:37:00,25.8,25.3,29.71,SE,131,31.5,39.7,98,0.00,,,0.00,VWS V14.01,2013-03-01 05:37:00,
2013-03-01 00:42:00,25.7,25.2,29.71,NNE,20,6.0,39.7,98,0.00,,,0.00,VWS V14.01,2013-03-01 05:42:00,
2013-03-01 00:47:00,25.7,25.2,29.71,ENE,58,6.7,39.7,98,0.00,,,0.00,VWS V14.01,2013-03-01 05:47:00,
2013-03-01 00:52:00,25.9,25.4,29.71,ENE,58,10.6,39.7,98,0.00,,,0.00,VWS V14.01,2013-03-01 05:52:00,
2013-03-01 00:57:00,25.8,25.3,29.71,NNE,28,0.0,0.0,98,0.00,,,0.00,VWS V14.01,2013-03-01 05:57:00,
2013-03-01 01:02:00,25.7,25.2,29.72,NE,42,2.2,36.0,98,0.00,,,0.00,VWS V14.01,2013-03-01 06:02:00,
2013-03-01 01:07:00,25.7,25.2,29.72,NE,49,8.4,36.0,98,0.00,,,0.00,VWS V14.01,2013-03-01 06:07:00,
2013-03-01 01:13:00,25.8,25.3,29.71,ENE,65,0.6,36.0,98,0.00,,,0.00,VWS V14.01,2013-03-01 06:13:00,
2013-03-01 01:18:00,25.7,25.2,29.72,East,82,12.5,36.0,98,0.00,,,0.00,VWS V14.01,2013-03-01 06:18:00,
2013-03-01 01:23:00,25.6,25.1,29.72,East,80,2.2,36.0,98,0.00,,,0.00,VWS V14.01,2013-03-01 06:23:00,
2013-03-01 01:28:00,25.5,25.0,29.72,NE,42,11.0,36.0,98,0.00,,,0.00,VWS V14.01,2013-03-01 06:28:00,
2013-03-01 01:33:00,25.6,25.1,29.72,NNE,30,8.9,36.0,98,0.00,,,0.00,VWS V14.01,2013-03-01 06:33:00,
2013-03-01 01:38:00,25.4,24.9,29.72,North,359,11.7,36.0,98,0.00,,,0.00,VWS V14.01,2013-03-01 06:38:00,
2013-03-01 01:43:00,25.4,24.9,29.72,ENE,66,12.1,42.9,98,0.00,,,0.00,VWS V14.01,2013-03-01 06:43:00,
2013-03-01 01:48:00,25.2,24.7,29.72,North,1,4.1,42.9,98,0.00,,,0.00,VWS V14.01,2013-03-01 06:48:00,
2013-03-01 01:53:00,25.3,24.8,29.72,North,7,13.0,42.9,98,0.00,,,0.00,VWS V14.01,2013-03-01 06:53:00,
2013-03-01 01:58:00,25.2,24.7,29.72,East,83,8.8,19.9,98,0.00,,,0.00,VWS V14.01,2013-03-01 06:58:00,
2013-03-01 02:03:00,25.2,24.7,29.72,NNE,18,14.4,28.1,98,0.00,,,0.00,VWS V14.01,2013-03-01 07:03:00,
2013-03-01 02:08:00,25.1,24.6,29.72,NNE,21,3.5,28.1,98,0.00,,,0.00,VWS V14.01,2013-03-01 07:08:00,
2013-03-01 02:14:00,25.1,24.6,29.72,East,97,0.0,28.1,98,0.00,,,0.00,VWS V14.01,2013-03-01 07:14:00,
2013-03-01 02:19:00,25.1,24.6,29.72,North,359,11.2,28.1,98,0.00,,,0.00,VWS V14.01,2013-03-01 07:19:00,
2013-03-01 02:24:00,25.0,24.5,29.72,ESE,120,11.7,28.1,98,0.00,,,0.00,VWS V14.01,2013-03-01 07:24:00,
2013-03-01 02:29:00,25.0,24.5,29.72,NE,41,0.0,28.1,98,0.00,,,0.00,VWS V14.01,2013-03-01 07:29:00,
2013-03-01 02:34:00,24.9,24.4,29.73,East,94,13.8,28.1,98,0.00,,,0.00,VWS V14.01,2013-03-01 07:34:00,
2013-03-01 02:39:00,24.8,24.3,29.72,ESE,121,14.2,28.1,98,0.00,,,0.00,VWS V14.01,2013-03-01 07:39:00,
2013-03-01 02:44:00,24.7,24.2,29.72,East,86,13.6,28.1,98,0.00,,,0.00,VWS V14.01,2013-03-01 07:44:00,
2013-03-01 02:49:00,24.7,24.2,29.72,NE,48,1.7,28.1,98,0.00,,,0.00,VWS V14.01,2013-03-01 07:49:00,
2013-03-01 02:54:00,24.7,24.2,29.73,NE,37,0.0,28.1,98,0.00,,,0.00,VWS V14.01,2013-03-01 07:54:00,
2013-03-01 02:59:00,24.5,24.0,29.73,ESE,117,23.9,25.7,98,0.00,,,0.00,VWS V14.01,2013-03-01 07:59:00,
2013-03-01 03:04:00,24.5,24.0,29.73,NNE,27,2.4,30.8,98,0.00,,,0.00,VWS V14.01,2013-03-01 08:04:00,
2013-03-01 03:09:00,24.4,23.9,29.73,North,359,8.4,31.3,98,0.00,,,0.00,VWS V14.01,2013-03-01 08:09:00,
2013-03-01 03:14:00,24.4,23.9,29.72,ESE,120,4.5,31.3,98,0.00,,,0.00,VWS V14.01,2013-03-01 08:14:00,
2013-03-01 03:19:00,24.4,23.9,29.73,ENE,75,0.0,31.3,98,0.00,,,0.00,VWS V14.01,2013-03-01 08:19:00,
2013-03-01 03:24:00,24.5,24.0,29.72,SE,141,6.9,31.3,98,0.00,,,0.00,VWS V14.01,2013-03-01 08:24:00,
2013-03-01 03:30:00,24.3,23.8,29.72,East,80,7.1,31.3,98,0.00,,,0.00,VWS V14.01,2013-03-01 08:30:00,
2013-03-01 03:35:00,24.3,23.8,29.73,North,359,0.0,31.3,98,0.00,,,0.00,VWS V14.01,2013-03-01 08:35:00,
2013-03-01 03:40:00,24.3,23.8,29.73,North,357,2.4,31.3,98,0.00,,,0.00,VWS V14.01,2013-03-01 08:40:00,
2013-03-01 03:45:00,24.2,23.7,29.73,North,6,4.1,31.3,98,0.00,,,0.00,VWS V14.01,2013-03-01 08:45:00,
2013-03-01 03:50:00,24.2,23.7,29.73,SSE,148,13.6,31.3,98,0.00,,,0.00,VWS V14.01,2013-03-01 08:50:00,
2013-03-01 03:55:00,24.1,23.6,29.73,ENE,77,6.7,34.5,98,0.00,,,0.00,VWS V14.01,2013-03-01 08:55:00,
2013-03-01 04:00:00,23.9,23.4,29.73,NNE,15,2.2,27.8,98,0.00,,,0.00,VWS V14.01,2013-03-01 09:00:00,
2013-03-01 04:05:00,23.8,23.3,29.73,ENE,63,6.9,27.8,98,0.00,,,0.00,VWS V14.01,2013-03-01 09:05:00,
2013-03-01 04:10:00,23.9,23.4,29.73,ENE,66,0.0,27.8,98,0.00,,,0.00,VWS V14.01,2013-03-01 09:10:00,
2013-03-01 04:15:00,23.9,23.4,29.73,ESE,115,6.9,27.8,98,0.00,,,0.00,VWS V14.01,2013-03-01 09:15:00,
2013-03-01 04:20:00,23.8,23.3,29.73,ESE,117,8.9,27.8,98,0.00,,,0.00,VWS V14.01,2013-03-01 09:20:00,
2013-03-01 04:25:00,24.0,23.5,29.73,NE,45,0.0,27.8,98,0.00,,,0.00,VWS V14.01,2013-03-01 09:25:00,
2013-03-01 04:30:00,23.9,23.4,29.73,ESE,110,15.5,27.8,98,0.00,,,0.00,VWS V14.01,2013-03-01 09:30:00,
2013-03-01 04:36:00,23.9,23.4,29.73,ESE,107,5.6,27.8,98,0.00,,,0.00,VWS V14.01,2013-03-01 09:36:00,
2013-03-01 04:41:00,23.9,23.4,29.73,NNE,15,0.0,27.8,98,0.00,,,0.00,VWS V14.01,2013-03-01 09:41:00,
2013-03-01 04:46:00,23.9,23.4,29.73,NE,37,6.5,27.8,98,0.00,,,0.00,VWS V14.01,2013-03-01 09:46:00,
2013-03-01 04:51:00,23.9,23.4,29.73,NNE,24,0.0,27.8,98,0.00,,,0.00,VWS V14.01,2013-03-01 09:51:00,
2013-03-01 04:56:00,23.9,23.4,29.73,ESE,107,13.6,27.8,98,0.00,,,0.00,VWS V14.01,2013-03-01 09:56:00,
2013-03-01 05:01:00,23.7,23.2,29.73,East,83,16.8,22.9,98,0.00,,,0.00,VWS V14.01,2013-03-01 10:01:00,
2013-03-01 05:06:00,23.8,23.3,29.73,ENE,69,5.8,26.3,98,0.00,,,0.00,VWS V14.01,2013-03-01 10:06:00,
2013-03-01 05:11:00,23.9,23.4,29.73,North,359,3.9,26.3,98,0.00,,,0.00,VWS V14.01,2013-03-01 10:11:00,
2013-03-01 05:16:00,23.7,23.2,29.73,North,359,16.8,28.0,98,0.00,,,0.00,VWS V14.01,2013-03-01 10:16:00,
2013-03-01 05:21:00,23.6,23.1,29.73,ENE,76,4.5,28.0,98,0.00,,,0.00,VWS V14.01,2013-03-01 10:21:00,
2013-03-01 05:26:00,23.6,23.1,29.73,North,359,0.0,28.0,98,0.00,,,0.00,VWS V14.01,2013-03-01 10:26:00,
2013-03-01 05:31:00,23.5,23.0,29.73,NNE,25,0.0,28.0,98,0.00,,,0.00,VWS V14.01,2013-03-01 10:31:00,
2013-03-01 05:36:00,23.6,23.1,29.73,East,84,20.5,28.0,98,0.00,,,0.00,VWS V14.01,2013-03-01 10:36:00,
2013-03-01 05:42:00,23.5,23.0,29.73,ENE,75,18.3,28.0,98,0.00,,,0.00,VWS V14.01,2013-03-01 10:42:00,
2013-03-01 05:47:00,23.6,23.1,29.73,NNW,347,10.1,28.0,98,0.00,,,0.00,VWS V14.01,2013-03-01 10:47:00,
2013-03-01 05:52:00,23.6,23.1,29.73,NE,35,4.7,28.0,98,0.00,,,0.00,VWS V14.01,2013-03-01 10:52:00,
2013-03-01 05:57:00,23.6,23.1,29.73,East,87,0.0,11.9,98,0.00,,,0.00,VWS V14.01,2013-03-01 10:57:00,
2013-03-01 06:02:00,23.6,23.1,29.73,North,7,6.2,25.2,98,0.00,,,0.00,VWS V14.01,2013-03-01 11:02:00,
2013-03-01 06:07:00,23.3,22.8,29.74,ENE,59,0.0,25.2,98,0.00,,,0.00,VWS V14.01,2013-03-01 11:07:00,
2013-03-01 06:12:00,23.3,22.8,29.74,East,91,9.5,25.2,98,0.00,,,0.00,VWS V14.01,2013-03-01 11:12:00,
2013-03-01 06:17:00,23.4,22.9,29.74,East,100,0.0,25.2,98,0.00,,,0.00,VWS V14.01,2013-03-01 11:17:00,
2013-03-01 06:22:00,23.3,22.8,29.74,ESE,104,0.0,25.2,98,0.00,,,0.00,VWS V14.01,2013-03-01 11:22:00,
2013-03-01 06:27:00,23.5,23.0,29.74,ENE,58,8.0,25.2,98,0.00,,,0.00,VWS V14.01,2013-03-01 11:27:00,
2013-03-01 06:32:00,23.4,22.9,29.74,North,11,0.0,25.2,98,0.00,,,0.00,VWS V14.01,2013-03-01 11:32:00,
2013-03-01 06:37:00,23.4,22.9,29.74,NNE,13,0.0,25.2,98,0.00,,,0.00,VWS V14.01,2013-03-01 11:37:00,
2013-03-01 06:43:00,23.4,22.9,29.74,ESE,117,14.0,29.1,98,0.00,,,0.00,VWS V14.01,2013-03-01 11:43:00,
2013-03-01 06:48:00,23.3,22.8,29.74,North,1,4.8,29.1,98,0.00,,,0.00,VWS V14.01,2013-03-01 11:48:00,
2013-03-01 06:53:00,23.5,23.0,29.74,North,353,3.7,29.1,98,0.00,,,0.00,VWS V14.01,2013-03-01 11:53:00,
2013-03-01 06:58:00,23.4,22.9,29.74,NNE,30,1.9,21.3,98,0.00,,,0.00,VWS V14.01,2013-03-01 11:58:00,
2013-03-01 07:03:00,23.3,22.8,29.74,North,7,5.8,22.7,98,0.00,,,0.00,VWS V14.01,2013-03-01 12:03:00,
2013-03-01 07:08:00,23.2,22.7,29.75,North,359,11.2,26.1,98,0.00,,,0.00,VWS V14.01,2013-03-01 12:08:00,
2013-03-01 07:13:00,23.2,22.7,29.75,NE,52,2.1,30.6,98,0.00,,,0.00,VWS V14.01,2013-03-01 12:13:00,
2013-03-01 07:18:00,23.0,22.5,29.75,NNE,31,0.0,30.6,98,0.00,,,0.00,VWS V14.01,2013-03-01 12:18:00,
2013-03-01 07:23:00,23.1,22.6,29.75,East,79,0.0,30.6,98,0.00,,,0.00,VWS V14.01,2013-03-01 12:23:00,
2013-03-01 07:28:00,23.2,22.7,29.76,ENE,66,0.0,30.6,98,0.00,,,0.00,VWS V14.01,2013-03-01 12:28:00,
2013-03-01 07:33:00,23.2,22.7,29.76,East,79,25.2,30.6,98,0.00,,,0.00,VWS V14.01,2013-03-01 12:33:00,
2013-03-01 07:38:00,23.1,22.6,29.76,NE,51,0.0,30.6,98,0.00,,,0.00,VWS V14.01,2013-03-01 12:38:00,
2013-03-01 07:43:00,23.0,22.5,29.76,ENE,68,13.2,30.6,98,0.00,,,0.00,VWS V14.01,2013-03-01 12:43:00,
2013-03-01 07:49:00,23.1,22.6,29.76,NE,49,3.2,30.6,98,0.00,,,0.00,VWS V14.01,2013-03-01 12:49:00,
2013-03-01 07:54:00,23.2,22.7,29.77,NE,49,0.0,30.6,98,0.00,,,0.00,VWS V14.01,2013-03-01 12:54:00,
2013-03-01 07:59:00,23.2,22.7,29.77,NE,53,9.9,19.4,98,0.00,,,0.00,VWS V14.01,2013-03-01 12:59:00,
2013-03-01 08:04:00,23.3,22.8,29.77,ENE,70,3.7,22.0,98,0.00,,,0.00,VWS V14.01,2013-03-01 13:04:00,
2013-03-01 08:09:00,23.0,22.5,29.78,North,11,5.6,22.6,98,0.00,,,0.00,VWS V14.01,2013-03-01 13:09:00,
2013-03-01 08:14:00,23.0,22.5,29.78,ENE,63,0.0,22.6,98,0.00,,,0.00,VWS V14.01,2013-03-01 13:14:00,
2013-03-01 08:19:00,23.1,22.6,29.78,NNE,22,2.6,22.6,98,0.00,,,0.00,VWS V14.01,2013-03-01 13:19:00,
2013-03-01 08:24:00,23.0,22.5,29.78,NNE,24,0.0,22.6,98,0.00,,,0.00,VWS V14.01,2013-03-01 13:24:00,
2013-03-01 08:29:00,23.0,22.5,29.79,NNE,30,0.0,22.6,98,0.00,,,0.00,VWS V14.01,2013-03-01 13:29:00,
2013-03-01 08:34:00,23.1,22.6,29.79,North,359,0.0,29.5,98,0.00,,,0.00,VWS V14.01,2013-03-01 13:34:00,
2013-03-01 08:39:00,23.1,22.6,29.79,North,359,24.8,29.5,98,0.00,,,0.00,VWS V14.01,2013-03-01 13:39:00,
2013-03-01 08:44:00,23.0,22.5,29.79,North,359,0.0,29.5,98,0.00,,,0.00,VWS V14.01,2013-03-01 13:44:00,
2013-03-01 08:49:00,23.1,22.6,29.79,ENE,59,0.0,29.5,98,0.00,,,0.00,VWS V14.01,2013-03-01 13:49:00,
2013-03-01 08:54:00,23.2,22.7,29.79,ENE,70,0.0,29.5,98,0.00,,,0.00,VWS V14.01,2013-03-01 13:54:00,
2013-03-01 08:59:00,23.2,22.7,29.79,NE,39,0.0,13.4,98,0.00,,,0.00,VWS V14.01,2013-03-01 13:59:00,
2013-03-01 09:04:00,23.3,22.8,29.79,East,80,0.0,13.4,98,0.00,,,0.00,VWS V14.01,2013-03-01 14:04:00,
2013-03-01 09:09:00,23.3,22.8,29.79,East,80,2.1,13.4,98,0.00,,,0.00,VWS V14.01,2013-03-01 14:09:00,
2013-03-01 09:14:00,23.5,23.0,29.79,East,94,0.7,15.7,98,0.00,,,0.00,VWS V14.01,2013-03-01 14:14:00,
2013-03-01 09:19:00,23.7,23.1,29.79,NNE,15,9.5,24.8,98,0.00,,,0.00,VWS V14.01,2013-03-01 14:19:00,
2013-03-01 09:24:00,23.6,23.0,29.79,ENE,69,8.9,24.8,98,0.00,,,0.00,VWS V14.01,2013-03-01 14:24:00,
2013-03-01 09:30:00,23.7,23.1,29.79,East,93,0.0,24.8,97,0.00,,,0.00,VWS V14.01,2013-03-01 14:30:00,
2013-03-01 09:35:00,23.7,23.0,29.79,ENE,75,0.0,24.8,97,0.00,,,0.00,VWS V14.01,2013-03-01 14:35:00,
2013-03-01 09:40:00,23.7,23.1,29.79,ENE,75,0.0,24.8,97,0.00,,,0.00,VWS V14.01,2013-03-01 14:40:00,
2013-03-01 09:45:00,23.8,23.1,29.79,ENE,72,0.0,24.8,97,0.00,,,0.00,VWS V14.01,2013-03-01 14:45:00,
2013-03-01 09:50:00,23.9,23.2,29.79,East,79,0.0,24.8,97,0.00,,,0.00,VWS V14.01,2013-03-01 14:50:00,
2013-03-01 09:55:00,24.0,23.2,29.79,NNE,27,0.0,24.8,97,0.00,,,0.00,VWS V14.01,2013-03-01 14:55:00,
2013-03-01 10:00:00,24.1,23.3,29.79,ENE,76,0.0,13.8,97,0.00,,,0.00,VWS V14.01,2013-03-01 15:00:00,
2013-03-01 10:05:00,24.0,23.1,29.79,East,84,1.7,28.7,96,0.00,,,0.00,VWS V14.01,2013-03-01 15:05:00,
2013-03-01 10:10:00,24.0,23.1,29.79,ESE,110,0.0,28.7,96,0.00,,,0.00,VWS V14.01,2013-03-01 15:10:00,
2013-03-01 10:15:00,24.0,23.1,29.79,NNE,17,0.0,28.7,96,0.00,,,0.00,VWS V14.01,2013-03-01 15:15:00,
2013-03-01 10:20:00,24.0,23.1,29.79,SE,135,12.7,28.7,96,0.00,,,0.00,VWS V14.01,2013-03-01 15:20:00,
2013-03-01 10:25:00,24.0,23.1,29.79,ENE,59,13.6,28.7,96,0.00,,,0.00,VWS V14.01,2013-03-01 15:25:00,
2013-03-01 10:30:00,23.9,23.0,29.79,North,359,2.2,28.7,96,0.00,,,0.00,VWS V14.01,2013-03-01 15:30:00,
2013-03-01 10:35:00,24.1,23.2,29.79,NNE,13,0.0,28.7,96,0.00,,,0.00,VWS V14.01,2013-03-01 15:35:00,
2013-03-01 10:40:00,24.1,23.0,29.79,East,86,0.0,28.7,96,0.00,,,0.00,VWS V14.01,2013-03-01 15:40:00,
2013-03-01 10:45:00,24.1,23.0,29.79,North,7,5.6,28.7,96,0.00,,,0.00,VWS V14.01,2013-03-01 15:45:00,
2013-03-01 10:50:00,24.2,23.1,29.79,SE,146,4.3,28.7,96,0.00,,,0.00,VWS V14.01,2013-03-01 15:50:00,
2013-03-01 10:55:00,24.2,23.0,29.79,East,97,9.5,28.7,95,0.00,,,0.00,VWS V14.01,2013-03-01 15:55:00,
2013-03-01 11:00:00,24.3,23.1,29.79,NE,56,0.0,21.1,95,0.00,,,0.00,VWS V14.01,2013-03-01 16:00:00,
2013-03-01 11:05:00,24.3,23.1,29.79,ENE,62,11.0,34.7,95,0.00,,,0.00,VWS V14.01,2013-03-01 16:05:00,
2013-03-01 11:11:00,24.4,23.1,29.79,North,357,0.0,34.7,95,0.00,,,0.00,VWS V14.01,2013-03-01 16:11:00,
2013-03-01 11:16:00,24.5,23.3,29.79,North,359,3.9,34.7,95,0.00,,,0.00,VWS V14.01,2013-03-01 16:16:00,
2013-03-01 11:21:00,24.6,23.3,29.79,NNE,20,0.0,34.7,95,0.00,,,0.00,VWS V14.01,2013-03-01 16:21:00,
2013-03-01 11:26:00,24.8,23.5,29.80,SSE,159,2.1,34.7,95,0.00,,,0.00,VWS V14.01,2013-03-01 16:26:00,
2013-03-01 11:31:00,24.9,23.6,29.79,ENE,73,0.0,34.7,95,0.00,,,0.00,VWS V14.01,2013-03-01 16:31:00,
2013-03-01 11:36:00,25.1,23.7,29.79,ENE,68,12.9,34.7,94,0.00,,,0.00,VWS V14.01,2013-03-01 16:36:00,
2013-03-01 11:41:00,25.3,24.0,29.79,North,359,0.0,34.7,95,0.00,,,0.00,VWS V14.01,2013-03-01 16:41:00,
2013-03-01 11:46:00,25.6,24.0,29.80,NNE,20,13.0,34.7,94,0.00,,,0.00,VWS V14.01,2013-03-01 16:46:00,
2013-03-01 11:51:00,25.4,24.0,29.80,ENE,72,23.1,34.7,94,0.00,,,0.00,VWS V14.01,2013-03-01 16:51:00,
2013-03-01 11:56:00,25.6,24.1,29.80,NNW,332,0.0,34.7,94,0.00,,,0.00,VWS V14.01,2013-03-01 16:56:00,
2013-03-01 12:01:00,25.9,24.2,29.80,ENE,58,0.0,22.9,93,0.00,,,0.00,VWS V14.01,2013-03-01 17:01:00,
2013-03-01 12:06:00,26.1,24.3,29.80,NE,35,0.0,22.9,93,0.00,,,0.00,VWS V14.01,2013-03-01 17:06:00,
2013-03-01 12:11:00,26.0,24.3,29.80,ENE,62,0.0,22.9,93,0.00,,,0.00,VWS V14.01,2013-03-01 17:11:00,
2013-03-01 12:16:00,26.0,24.5,29.80,ENE,58,0.0,22.9,94,0.00,,,0.00,VWS V14.01,2013-03-01 17:16:00,
2013-03-01 12:21:00,26.0,24.4,29.80,ENE,59,13.8,22.9,93,0.00,,,0.00,VWS V14.01,2013-03-01 17:21:00,
2013-03-01 12:26:00,26.3,24.6,29.80,ENE,76,0.0,22.9,93,0.00,,,0.00,VWS V14.01,2013-03-01 17:26:00,
2013-03-01 12:32:00,26.5,24.3,29.80,ENE,63,0.0,22.9,91,0.00,,,0.00,VWS V14.01,2013-03-01 17:32:00,
2013-03-01 12:37:00,26.3,24.0,29.80,East,83,19.9,23.3,91,0.00,,,0.00,VWS V14.01,2013-03-01 17:37:00,
2013-03-01 12:42:00,26.1,23.8,29.79,North,3,4.8,26.5,91,0.00,,,0.00,VWS V14.01,2013-03-01 17:42:00,
2013-03-01 12:47:00,25.8,24.0,29.80,NE,35,9.5,26.5,93,0.00,,,0.00,VWS V14.01,2013-03-01 17:47:00,
2013-03-01 12:52:00,25.6,23.9,29.79,ESE,108,0.0,26.5,93,0.00,,,0.00,VWS V14.01,2013-03-01 17:52:00,
2013-03-01 12:57:00,25.6,23.8,29.79,ENE,72,1.9,2.2,93,0.00,,,0.00,VWS V14.01,2013-03-01 17:57:00,
2013-03-01 13:02:00,25.7,23.9,29.79,East,98,8.8,14.7,93,0.00,,,0.00,VWS V14.01,2013-03-01 18:02:00,
2013-03-01 13:07:00,25.7,23.9,29.79,East,90,10.8,18.6,93,0.00,,,0.00,VWS V14.01,2013-03-01 18:07:00,
2013-03-01 13:12:00,25.8,24.2,29.79,NE,48,0.0,18.6,93,0.00,,,0.00,VWS V14.01,2013-03-01 18:12:00,
2013-03-01 13:17:00,25.9,24.2,29.79,NNE,21,4.5,18.6,93,0.00,,,0.00,VWS V14.01,2013-03-01 18:17:00,
2013-03-01 13:22:00,25.8,23.8,29.79,SSW,202,15.1,20.5,92,0.00,,,0.00,VWS V14.01,2013-03-01 18:22:00,
2013-03-01 13:27:00,25.8,23.6,29.79,North,0,0.0,27.4,91,0.00,,,0.00,VWS V14.01,2013-03-01 18:27:00,
2013-03-01 13:32:00,25.9,23.9,29.79,North,354,0.0,27.4,92,0.00,,,0.00,VWS V14.01,2013-03-01 18:32:00,
2013-03-01 13:37:00,26.2,24.2,29.79,East,90,11.7,27.4,92,0.00,,,0.00,VWS V14.01,2013-03-01 18:37:00,
2013-03-01 13:42:00,26.2,23.9,29.79,East,80,0.0,40.1,91,0.00,,,0.00,VWS V14.01,2013-03-01 18:42:00,
2013-03-01 13:47:00,26.2,23.5,29.79,East,79,13.4,40.1,89,0.00,,,0.00,VWS V14.01,2013-03-01 18:47:00,
2013-03-01 13:52:00,26.1,23.7,29.79,NE,56,0.0,40.1,90,0.00,,,0.00,VWS V14.01,2013-03-01 18:52:00,
2013-03-01 13:57:00,26.0,24.0,29.79,NE,52,0.0,5.0,92,0.00,,,0.00,VWS V14.01,2013-03-01 18:57:00,
2013-03-01 14:03:00,25.7,23.8,29.79,NE,45,0.0,24.2,92,0.00,,,0.00,VWS V14.01,2013-03-01 19:03:00,
2013-03-01 14:08:00,25.5,23.5,29.79,North,10,8.9,25.9,92,0.00,,,0.00,VWS V14.01,2013-03-01 19:08:00,
2013-03-01 14:13:00,25.4,23.5,29.79,NNE,15,1.9,25.9,92,0.00,,,0.00,VWS V14.01,2013-03-01 19:13:00,
2013-03-01 14:18:00,25.2,23.4,29.79,East,87,11.4,25.9,93,0.00,,,0.00,VWS V14.01,2013-03-01 19:18:00,
2013-03-01 14:23:00,25.1,23.4,29.79,ESE,105,10.4,25.9,93,0.00,,,0.00,VWS V14.01,2013-03-01 19:23:00,
2013-03-01 14:28:00,25.3,23.6,29.79,ESE,107,0.0,25.9,93,0.00,,,0.00,VWS V14.01,2013-03-01 19:28:00,
2013-03-01 14:33:00,25.6,23.7,29.79,ESE,117,9.5,25.9,92,0.00,,,0.00,VWS V14.01,2013-03-01 19:33:00,
2013-03-01 14:38:00,25.4,23.6,29.79,NE,56,3.7,25.9,93,0.00,,,0.00,VWS V14.01,2013-03-01 19:38:00,
2013-03-01 14:43:00,25.1,23.4,29.79,NNE,28,5.8,27.4,93,0.00,,,0.00,VWS V14.01,2013-03-01 19:43:00,
2013-03-01 14:48:00,24.8,22.5,29.79,North,349,4.5,27.4,91,0.00,,,0.00,VWS V14.01,2013-03-01 19:48:00,
2013-03-01 14:53:00,24.5,22.4,29.79,ESE,117,10.8,27.4,92,0.00,,,0.00,VWS V14.01,2013-03-01 19:53:00,
2013-03-01 14:58:00,24.5,22.7,29.79,East,96,4.1,21.6,93,0.00,,,0.00,VWS V14.01,2013-03-01 19:58:00,
2013-03-01 15:03:00,24.7,23.0,29.79,ENE,63,8.6,21.6,93,0.00,,,0.00,VWS V14.01,2013-03-01 20:03:00,
2013-03-01 15:08:00,24.8,23.1,29.79,North,4,0.0,21.6,93,0.00,,,0.00,VWS V14.01,2013-03-01 20:08:00,
2013-03-01 15:13:00,24.8,23.1,29.79,East,91,3.0,21.6,93,0.00,,,0.00,VWS V14.01,2013-03-01 20:13:00,
2013-03-01 15:18:00,24.6,22.9,29.79,NNE,13,0.0,29.1,93,0.00,,,0.00,VWS V14.01,2013-03-01 20:18:00,
2013-03-01 15:23:00,24.2,22.6,29.79,North,7,4.8,29.8,94,0.00,,,0.00,VWS V14.01,2013-03-01 20:23:00,
2013-03-01 15:28:00,24.1,22.6,29.79,North,0,0.0,29.8,94,0.00,,,0.00,VWS V14.01,2013-03-01 20:28:00,
2013-03-01 15:34:00,23.9,22.3,29.79,East,86,9.9,29.8,94,0.00,,,0.00,VWS V14.01,2013-03-01 20:34:00,
2013-03-01 15:39:00,23.8,22.2,29.79,North,6,0.0,29.8,94,0.00,,,0.00,VWS V14.01,2013-03-01 20:39:00,
2013-03-01 15:44:00,23.8,22.1,29.79,NE,35,0.0,29.8,93,0.00,,,0.00,VWS V14.01,2013-03-01 20:44:00,
2013-03-01 15:49:00,23.6,22.1,29.79,East,98,9.5,29.8,94,0.00,,,0.00,VWS V14.01,2013-03-01 20:49:00,
2013-03-01 15:54:00,23.7,22.3,29.79,ESE,115,6.7,29.8,94,0.00,,,0.00,VWS V14.01,2013-03-01 20:54:00,
2013-03-01 15:59:00,23.5,22.1,29.79,ESE,114,2.6,18.6,94,0.00,,,0.00,VWS V14.01,2013-03-01 20:59:00,
2013-03-01 16:04:00,23.3,21.9,29.79,NE,56,0.0,19.6,94,0.00,,,0.00,VWS V14.01,2013-03-01 21:04:00,
2013-03-01 16:09:00,23.3,22.0,29.79,ENE,66,0.0,19.6,95,0.00,,,0.00,VWS V14.01,2013-03-01 21:09:00,
2013-03-01 16:14:00,23.2,21.9,29.80,NE,38,10.1,33.7,95,0.00,,,0.00,VWS V14.01,2013-03-01 21:14:00,
2013-03-01 16:19:00,23.1,21.8,29.80,North,6,0.0,33.7,95,0.00,,,0.00,VWS V14.01,2013-03-01 21:19:00,
2013-03-01 16:24:00,23.2,22.0,29.80,NE,44,2.4,33.7,95,0.00,,,0.00,VWS V14.01,2013-03-01 21:24:00,
2013-03-01 16:29:00,23.1,21.9,29.80,NNE,18,8.6,33.7,95,0.00,,,0.00,VWS V14.01,2013-03-01 21:29:00,
2013-03-01 16:34:00,22.9,21.6,29.80,NE,53,0.0,33.7,95,0.00,,,0.00,VWS V14.01,2013-03-01 21:34:00,
2013-03-01 16:39:00,23.2,22.0,29.80,NE,46,5.0,33.7,95,0.00,,,0.00,VWS V14.01,2013-03-01 21:39:00,
2013-03-01 16:45:00,23.1,21.8,29.80,East,87,0.0,33.7,94,0.00,,,0.00,VWS V14.01,2013-03-01 21:45:00,
2013-03-01 16:50:00,23.0,21.7,29.80,ENE,66,0.0,33.7,95,0.00,,,0.00,VWS V14.01,2013-03-01 21:50:00,
2013-03-01 16:55:00,22.9,21.6,29.81,NNE,24,0.0,33.7,94,0.00,,,0.00,VWS V14.01,2013-03-01 21:55:00,
2013-03-01 17:00:00,22.9,21.6,29.81,North,0,0.7,18.8,95,0.00,,,0.00,VWS V14.01,2013-03-01 22:00:00,
2013-03-01 17:05:00,22.8,21.4,29.81,NW,319,3.4,19.4,94,0.00,,,0.00,VWS V14.01,2013-03-01 22:05:00,
2013-03-01 17:10:00,22.8,21.4,29.81,NE,56,0.0,23.5,94,0.00,,,0.00,VWS V14.01,2013-03-01 22:10:00,
2013-03-01 17:15:00,22.6,21.2,29.81,NE,44,0.0,28.3,94,0.00,,,0.00,VWS V14.01,2013-03-01 22:15:00,
2013-03-01 17:20:00,22.5,21.2,29.81,NW,323,0.0,28.3,94,0.00,,,0.00,VWS V14.01,2013-03-01 22:20:00,
2013-03-01 17:25:00,22.5,21.1,29.82,North,4,0.0,28.3,94,0.00,,,0.00,VWS V14.01,2013-03-01 22:25:00,
2013-03-01 17:30:00,22.5,21.2,29.82,NE,42,0.0,28.3,94,0.00,,,0.00,VWS V14.01,2013-03-01 22:30:00,
2013-03-01 17:35:00,22.5,21.1,29.82,ENE,59,3.9,28.3,94,0.00,,,0.00,VWS V14.01,2013-03-01 22:35:00,
2013-03-01 17:41:00,22.6,21.3,29.82,NNW,333,0.0,28.3,94,0.00,,,0.00,VWS V14.01,2013-03-01 22:41:00,
2013-03-01 17:46:00,22.5,21.2,29.82,East,97,0.0,28.3,94,0.00,,,0.00,VWS V14.01,2013-03-01 22:46:00,
2013-03-01 17:51:00,22.5,21.2,29.82,WNW,297,0.0,28.3,95,0.00,,,0.00,VWS V14.01,2013-03-01 22:51:00,
2013-03-01 17:56:00,22.4,21.1,29.82,WNW,297,0.0,28.3,95,0.00,,,0.00,VWS V14.01,2013-03-01 22:56:00,
2013-03-01 18:01:00,22.4,21.1,29.82,South,181,0.0,17.1,95,0.00,,,0.00,VWS V14.01,2013-03-01 23:01:00,
2013-03-01 18:06:00,22.4,21.1,29.82,ENE,73,0.0,17.1,95,0.00,,,0.00,VWS V14.01,2013-03-01 23:06:00,
2013-03-01 18:11:00,22.3,21.0,29.82,WNW,302,0.0,22.6,95,0.00,,,0.00,VWS V14.01,2013-03-01 23:11:00,
2013-03-01 18:16:00,22.2,20.9,29.82,East,80,0.0,22.6,95,0.00,,,0.00,VWS V14.01,2013-03-01 23:16:00,
2013-03-01 18:21:00,22.0,20.8,29.83,SE,134,0.0,22.6,95,0.00,,,0.00,VWS V14.01,2013-03-01 23:21:00,
2013-03-01 18:26:00,21.9,20.6,29.83,NE,34,4.3,25.2,95,0.00,,,0.00,VWS V14.01,2013-03-01 23:26:00,
2013-03-01 18:31:00,21.8,20.6,29.82,ENE,75,9.3,25.2,95,0.00,,,0.00,VWS V14.01,2013-03-01 23:31:00,
2013-03-01 18:36:00,21.8,20.7,29.83,ESE,120,0.0,25.5,95,0.00,,,0.00,VWS V14.01,2013-03-01 23:36:00,
2013-03-01 18:41:00,21.7,20.6,29.83,South,172,5.6,25.7,96,0.00,,,0.00,VWS V14.01,2013-03-01 23:41:00,
2013-03-01 18:46:00,21.7,20.6,29.83,SE,143,12.3,25.7,95,0.00,,,0.00,VWS V14.01,2013-03-01 23:46:00,
2013-03-01 18:51:00,21.8,20.6,29.82,NE,41,3.7,25.7,95,0.00,,,0.00,VWS V14.01,2013-03-01 23:51:00,
2013-03-01 18:56:00,21.9,20.7,29.83,ESE,115,0.0,25.7,95,0.00,,,0.00,VWS V14.01,2013-03-01 23:56:00,
2013-03-01 19:02:00,21.7,20.6,29.82,SSW,208,0.0,22.0,95,0.00,,,0.00,VWS V14.01,2013-03-02 00:02:00,
2013-03-01 19:07:00,21.8,20.7,29.82,East,79,0.0,22.0,96,0.00,,,0.00,VWS V14.01,2013-03-02 00:07:00,
2013-03-01 19:12:00,21.8,20.7,29.82,SSE,152,0.0,22.0,95,0.00,,,0.00,VWS V14.01,2013-03-02 00:12:00,
2013-03-01 19:17:00,21.9,20.8,29.82,NW,307,0.0,22.0,95,0.00,,,0.00,VWS V14.01,2013-03-02 00:17:00,
2013-03-01 19:22:00,21.9,20.8,29.83,North,359,0.0,22.0,95,0.00,,,0.00,VWS V14.01,2013-03-02 00:22:00,
2013-03-01 19:27:00,22.0,20.9,29.83,North,359,0.0,22.0,95,0.00,,,0.00,VWS V14.01,2013-03-02 00:27:00,
2013-03-01 19:32:00,21.9,20.7,29.83,East,93,0.0,30.2,95,0.00,,,0.00,VWS V14.01,2013-03-02 00:32:00,
2013-03-01 19:37:00,21.8,20.6,29.83,ENE,59,5.6,30.2,95,0.00,,,0.00,VWS V14.01,2013-03-02 00:37:00,
2013-03-01 19:42:00,21.6,20.4,29.83,NNW,332,0.0,30.2,95,0.00,,,0.00,VWS V14.01,2013-03-02 00:42:00,
2013-03-01 19:47:00,21.4,20.2,29.83,SSE,149,0.0,30.2,95,0.00,,,0.00,VWS V14.01,2013-03-02 00:47:00,
2013-03-01 19:52:00,21.4,20.3,29.83,North,11,0.0,30.2,95,0.00,,,0.00,VWS V14.01,2013-03-02 00:52:00,
2013-03-01 19:57:00,21.3,20.2,29.84,ENE,76,0.0,1.1,96,0.00,,,0.00,VWS V14.01,2013-03-02 00:57:00,
2013-03-01 20:03:00,21.3,20.2,29.84,ENE,75,11.6,19.2,96,0.00,,,0.00,VWS V14.01,2013-03-02 01:03:00,
2013-03-01 20:08:00,21.0,20.0,29.84,NW,322,0.0,21.8,96,0.00,,,0.00,VWS V14.01,2013-03-02 01:08:00,
2013-03-01 20:13:00,21.0,20.1,29.83,NNE,17,3.9,21.8,96,0.00,,,0.00,VWS V14.01,2013-03-02 01:13:00,
2013-03-01 20:18:00,21.1,20.1,29.84,East,93,3.2,21.8,96,0.00,,,0.00,VWS V14.01,2013-03-02 01:18:00,
2013-03-01 20:23:00,21.0,20.0,29.83,ENE,69,0.0,21.8,96,0.00,,,0.00,VWS V14.01,2013-03-02 01:23:00,
2013-03-01 20:28:00,21.0,19.9,29.83,NNW,328,18.3,24.8,96,0.00,,,0.00,VWS V14.01,2013-03-02 01:28:00,
2013-03-01 20:33:00,20.8,19.7,29.84,East,93,3.7,24.8,95,0.00,,,0.00,VWS V14.01,2013-03-02 01:33:00,
2013-03-01 20:38:00,20.7,19.7,29.84,NNE,17,3.2,24.8,96,0.00,,,0.00,VWS V14.01,2013-03-02 01:38:00,
2013-03-01 20:43:00,20.7,19.7,29.84,ENE,69,0.0,24.8,96,0.00,,,0.00,VWS V14.01,2013-03-02 01:43:00,
2013-03-01 20:48:00,20.7,19.8,29.84,East,97,9.5,24.8,96,0.00,,,0.00,VWS V14.01,2013-03-02 01:48:00,
2013-03-01 20:53:00,20.7,19.8,29.84,ENE,59,0.0,24.8,96,0.00,,,0.00,VWS V14.01,2013-03-02 01:53:00,
2013-03-01 20:58:00,20.7,19.8,29.84,NNE,22,0.0,19.0,96,0.00,,,0.00,VWS V14.01,2013-03-02 01:58:00,
2013-03-01 21:03:00,20.4,19.5,29.84,North,353,0.0,19.0,96,0.00,,,0.00,VWS V14.01,2013-03-02 02:03:00,
2013-03-01 21:08:00,20.6,19.7,29.84,East,82,0.0,19.0,96,0.00,,,0.00,VWS V14.01,2013-03-02 02:08:00,
2013-03-01 21:13:00,20.5,19.5,29.84,NNW,343,1.1,21.4,96,0.00,,,0.00,VWS V14.01,2013-03-02 02:13:00,
2013-03-01 21:19:00,20.4,19.4,29.84,SE,145,5.0,23.5,96,0.00,,,0.00,VWS V14.01,2013-03-02 02:19:00,
2013-03-01 21:24:00,20.5,19.5,29.84,NNE,30,19.0,23.5,96,0.00,,,0.00,VWS V14.01,2013-03-02 02:24:00,
2013-03-01 21:29:00,20.4,19.4,29.84,ESE,121,0.0,28.9,96,0.00,,,0.00,VWS V14.01,2013-03-02 02:29:00,
2013-03-01 21:34:00,20.5,19.4,29.84,ENE,60,0.0,28.9,96,0.00,,,0.00,VWS V14.01,2013-03-02 02:34:00,
2013-03-01 21:39:00,20.6,19.6,29.84,NNW,343,7.8,28.9,96,0.00,,,0.00,VWS V14.01,2013-03-02 02:39:00,
2013-03-01 21:44:00,20.5,19.4,29.84,ENE,69,3.9,28.9,96,0.00,,,0.00,VWS V14.01,2013-03-02 02:44:00,
2013-03-01 21:49:00,20.4,19.4,29.84,NE,51,4.1,28.9,96,0.00,,,0.00,VWS V14.01,2013-03-02 02:49:00,
2013-03-01 21:54:00,20.4,19.4,29.84,ENE,60,0.0,28.9,96,0.00,,,0.00,VWS V14.01,2013-03-02 02:54:00,
2013-03-01 21:59:00,20.6,19.6,29.84,ENE,58,11.9,16.4,96,0.00,,,0.00,VWS V14.01,2013-03-02 02:59:00,
2013-03-01 22:05:00,20.5,19.4,29.85,East,90,0.0,22.6,96,0.00,,,0.00,VWS V14.01,2013-03-02 03:05:00,
2013-03-01 22:10:00,20.4,19.4,29.85,ENE,62,6.9,22.6,96,0.00,,,0.00,VWS V14.01,2013-03-02 03:10:00,
2013-03-01 22:15:00,20.3,19.2,29.84,SE,125,1.1,22.6,95,0.00,,,0.00,VWS V14.01,2013-03-02 03:15:00,
2013-03-01 22:20:00,20.0,19.0,29.84,SSE,148,0.0,27.8,96,0.00,,,0.00,VWS V14.01,2013-03-02 03:20:00,
2013-03-01 22:25:00,20.0,19.0,29.84,ENE,69,20.7,30.8,96,0.00,,,0.00,VWS V14.01,2013-03-02 03:25:00,
2013-03-01 22:30:00,19.8,18.9,29.84,SE,124,3.9,30.8,96,0.00,,,0.00,VWS V14.01,2013-03-02 03:30:00,
2013-03-01 22:35:00,19.9,19.0,29.84,North,8,0.0,30.8,96,0.00,,,0.00,VWS V14.01,2013-03-02 03:35:00,
2013-03-01 22:40:00,19.8,18.9,29.84,NE,37,0.0,30.8,96,0.00,,,0.00,VWS V14.01,2013-03-02 03:40:00,
2013-03-01 22:45:00,19.8,18.8,29.84,NNE,32,10.4,30.8,96,0.00,,,0.00,VWS V14.01,2013-03-02 03:45:00,
2013-03-01 22:50:00,19.7,18.8,29.84,ENE,63,11.9,30.8,96,0.00,,,0.00,VWS V14.01,2013-03-02 03:50:00,
2013-03-01 22:55:00,19.7,18.8,29.84,NE,39,0.0,30.8,96,0.00,,,0.00,VWS V14.01,2013-03-02 03:55:00,
2013-03-01 23:01:00,19.6,18.7,29.84,East,93,21.6,25.7,96,0.00,,,0.00,VWS V14.01,2013-03-02 04:01:00,
2013-03-01 23:06:00,19.7,18.8,29.84,ESE,115,0.0,25.7,96,0.00,,,0.00,VWS V14.01,2013-03-02 04:06:00,
2013-03-01 23:11:00,19.5,18.7,29.84,NE,49,5.8,25.7,96,0.00,,,0.00,VWS V14.01,2013-03-02 04:11:00,
2013-03-01 23:16:00,19.5,18.7,29.84,NNE,25,1.3,25.7,97,0.00,,,0.00,VWS V14.01,2013-03-02 04:16:00,
2013-03-01 23:21:00,19.5,18.7,29.84,East,83,6.2,25.7,97,0.00,,,0.00,VWS V14.01,2013-03-02 04:21:00,
2013-03-01 23:26:00,19.5,18.7,29.83,East,94,0.7,25.7,97,0.00,,,0.00,VWS V14.01,2013-03-02 04:26:00,
2013-03-01 23:31:00,19.5,18.6,29.83,SE,142,7.5,26.3,96,0.00,,,0.00,VWS V14.01,2013-03-02 04:31:00,
2013-03-01 23:36:00,19.5,18.6,29.83,ESE,120,0.0,26.3,96,0.00,,,0.00,VWS V14.01,2013-03-02 04:36:00,
2013-03-01 23:41:00,19.6,18.7,29.83,East,79,9.1,26.3,96,0.00,,,0.00,VWS V14.01,2013-03-02 04:41:00,
2013-03-01 23:46:00,19.7,18.7,29.83,East,96,2.1,26.3,96,0.00,,,0.00,VWS V14.01,2013-03-02 04:46:00,
2013-03-01 23:51:00,19.5,18.5,29.83,NNE,15,0.0,26.3,96,0.00,,,0.00,VWS V14.01,2013-03-02 04:51:00,
2013-03-01 23:56:00,19.4,18.4,29.83,ENE,76,8.2,26.3,96,0.00,,,0.00,VWS V14.01,2013-03-02 04:56:00,